Time;durP1;ratioP1;P1;durP2;ratioP2;P2;SDS_P1;SDS_P2;PMS_P1;PMS_P2;Temp;Humidity;BMP_temperature;BMP_pressure;BME280_temperature;BME280_humidity;BME280_pressure;Samples;Min_cycle;Max_cycle;Signal;HPM_P1;HPM_P2
2023/03/09 00:01:56;;;;;;;3.47;2.20;;;1.20;99.90;;;;;;4822186;29;20054;-59
2023/03/09 00:04:24;;;;;;;5.85;2.63;;;1.20;99.90;;;;;;4834350;29;20050;-60
2023/03/09 00:06:52;;;;;;;4.18;2.60;;;1.20;99.90;;;;;;4830261;29;20496;-61
2023/03/09 00:09:20;;;;;;;3.50;2.45;;;1.20;99.90;;;;;;4824357;29;20054;-61
2023/03/09 00:11:49;;;;;;;3.67;2.38;;;1.20;99.90;;;;;;4817560;29;20055;-59
2023/03/09 00:14:20;;;;;;;3.92;2.75;;;1.20;99.90;;;;;;4826297;29;20053;-59
2023/03/09 00:16:48;;;;;;;5.18;2.55;;;1.20;99.90;;;;;;4839355;29;20054;-60
2023/03/09 00:19:26;;;;;;;6.90;2.75;;;1.20;99.90;;;;;;4836577;29;20053;-59
2023/03/09 00:21:55;;;;;;;4.60;2.55;;;1.20;99.90;;;;;;4821138;29;20046;-61
2023/03/09 00:24:28;;;;;;;4.32;2.50;;;1.20;99.90;;;;;;4834012;29;20574;-61
2023/03/09 00:27:01;;;;;;;4.80;3.03;;;1.20;99.90;;;;;;4820883;29;20058;-59
2023/03/09 00:29:30;;;;;;;4.50;2.20;;;1.20;99.90;;;;;;4834455;29;20053;-60
2023/03/09 00:31:58;;;;;;;8.52;2.90;;;1.30;99.90;;;;;;4820909;29;20054;-61
2023/03/09 00:34:27;;;;;;;6.00;2.92;;;1.30;99.90;;;;;;4832795;29;20530;-60
2023/03/09 00:36:54;;;;;;;7.22;2.67;;;1.30;99.90;;;;;;4838190;29;20379;-59
2023/03/09 00:39:23;;;;;;;4.78;2.75;;;1.30;99.90;;;;;;4823087;29;20058;-60
2023/03/09 00:41:53;;;;;;;6.18;2.70;;;1.30;99.90;;;;;;4817014;29;20053;-58
2023/03/09 00:44:22;;;;;;;7.07;3.35;;;1.30;99.90;;;;;;4824055;29;20050;-60
2023/03/09 00:46:53;;;;;;;3.58;2.53;;;1.30;99.90;;;;;;4822602;29;20061;-61
2023/03/09 00:49:21;;;;;;;3.85;2.40;;;1.30;99.90;;;;;;4825139;29;20054;-60
2023/03/09 00:51:48;;;;;;;6.55;3.15;;;1.30;99.90;;;;;;4820793;29;20076;-60
2023/03/09 00:54:19;;;;;;;4.75;2.92;;;1.30;99.90;;;;;;4830704;29;20069;-59
2023/03/09 00:56:46;;;;;;;4.57;2.63;;;1.30;99.90;;;;;;4837448;29;20611;-59
2023/03/09 00:59:14;;;;;;;5.88;3.17;;;1.30;99.90;;;;;;4821214;29;20054;-59
2023/03/09 01:01:42;;;;;;;8.82;4.00;;;1.40;99.90;;;;;;4819337;29;20063;-61
2023/03/09 01:04:12;;;;;;;4.25;2.75;;;1.30;99.90;;;;;;4819485;29;20056;-61
2023/03/09 01:06:40;;;;;;;4.30;2.80;;;1.30;99.90;;;;;;4809231;29;20501;-60
2023/03/09 01:09:09;;;;;;;4.68;3.00;;;1.30;99.90;;;;;;4820697;29;20050;-59
2023/03/09 01:11:37;;;;;;;6.07;3.70;;;1.30;99.90;;;;;;4820243;29;20047;-61
2023/03/09 01:14:09;;;;;;;8.00;3.53;;;1.30;99.90;;;;;;4824054;29;20057;-59
2023/03/09 01:16:38;;;;;;;8.00;4.20;;;1.40;99.90;;;;;;4819085;29;20078;-59
2023/03/09 01:19:06;;;;;;;5.95;3.92;;;1.40;99.90;;;;;;4832024;29;20069;-60
2023/03/09 01:21:34;;;;;;;8.50;3.55;;;1.40;99.90;;;;;;4821399;29;20058;-59
2023/03/09 01:24:01;;;;;;;7.07;3.50;;;1.40;99.90;;;;;;4829907;29;20054;-59
2023/03/09 01:26:29;;;;;;;6.13;3.47;;;1.40;99.90;;;;;;4826755;29;20051;-61
2023/03/09 01:28:57;;;;;;;8.00;4.53;;;1.30;99.90;;;;;;4831075;29;20057;-59
2023/03/09 01:31:24;;;;;;;8.65;4.30;;;1.40;99.90;;;;;;4823576;29;20047;-59
2023/03/09 01:33:52;;;;;;;8.15;4.00;;;1.40;99.90;;;;;;4828580;29;20049;-59
2023/03/09 01:36:20;;;;;;;7.90;4.20;;;1.40;99.90;;;;;;4828718;29;20058;-59
2023/03/09 01:38:49;;;;;;;7.03;3.60;;;1.40;99.90;;;;;;4830721;29;20050;-59
2023/03/09 01:41:22;;;;;;;7.35;4.15;;;1.40;99.90;;;;;;4825414;29;20046;-58
2023/03/09 01:43:51;;;;;;;7.15;4.03;;;1.40;99.90;;;;;;4825886;29;20639;-60
2023/03/09 01:46:23;;;;;;;6.78;4.03;;;1.40;99.90;;;;;;4835638;29;20060;-60
2023/03/09 01:49:00;;;;;;;11.02;4.25;;;1.40;99.90;;;;;;4812925;29;20090;-59
2023/03/09 01:51:55;;;;;;;8.60;3.95;;;1.40;99.90;;;;;;4801611;29;20055;-60
2023/03/09 01:54:48;;;;;;;9.65;3.70;;;1.40;99.90;;;;;;4833600;29;20054;-60
2023/03/09 01:57:27;;;;;;;9.10;4.07;;;1.40;99.90;;;;;;4835223;29;20394;-60
2023/03/09 02:00:12;;;;;;;8.95;4.05;;;1.40;99.90;;;;;;4821842;29;20401;-60
2023/03/09 02:02:57;;;;;;;8.07;3.70;;;1.40;99.90;;;;;;4819972;29;20050;-60
2023/03/09 02:06:17;;;;;;;7.90;4.57;;;1.30;99.90;;;;;;4824610;29;20050;-59
2023/03/09 02:09:39;;;;;;;9.30;4.15;;;1.30;99.90;;;;;;4821584;29;20529;-59
2023/03/09 02:12:13;;;;;;;6.80;3.65;;;1.40;99.90;;;;;;4816835;29;20423;-61
2023/03/09 02:14:42;;;;;;;12.07;4.32;;;1.40;99.90;;;;;;4828810;29;20551;-59
2023/03/09 02:17:14;;;;;;;9.20;3.88;;;1.40;99.90;;;;;;4818272;29;20058;-60
2023/03/09 02:20:06;;;;;;;8.02;3.92;;;1.40;99.90;;;;;;4820869;29;20046;-59
2023/03/09 02:22:38;;;;;;;9.95;3.88;;;1.40;99.90;;;;;;4816819;29;20058;-59
2023/03/09 02:25:14;;;;;;;9.38;4.05;;;1.30;99.90;;;;;;4835551;29;20407;-59
2023/03/09 02:27:42;;;;;;;7.68;3.60;;;1.40;99.90;;;;;;4821020;29;20061;-58
2023/03/09 02:30:10;;;;;;;8.25;4.40;;;1.30;99.90;;;;;;4786557;29;20062;-59
2023/03/09 02:32:38;;;;;;;10.18;3.97;;;1.40;99.90;;;;;;4812916;29;20050;-59
2023/03/09 02:35:09;;;;;;;6.75;3.97;;;1.40;99.90;;;;;;4822121;29;20046;-60
2023/03/09 02:37:43;;;;;;;9.15;4.38;;;1.40;99.90;;;;;;4814760;29;20042;-59
2023/03/09 02:40:31;;;;;;;8.10;4.22;;;1.40;99.90;;;;;;4836156;29;20061;-60
2023/03/09 02:43:03;;;;;;;8.20;4.80;;;1.40;99.90;;;;;;4820706;29;20550;-59
2023/03/09 02:45:32;;;;;;;8.10;3.60;;;1.40;99.90;;;;;;4817342;29;20051;-60
2023/03/09 02:48:01;;;;;;;6.45;3.38;;;1.40;99.90;;;;;;4819909;29;20046;-60
2023/03/09 02:50:30;;;;;;;9.25;3.92;;;1.40;99.90;;;;;;4820273;29;20049;-60
2023/03/09 02:53:00;;;;;;;9.85;4.78;;;1.40;99.90;;;;;;4821275;29;20057;-59
2023/03/09 02:55:30;;;;;;;10.85;4.38;;;1.40;99.90;;;;;;4821291;29;20049;-60
2023/03/09 02:57:58;;;;;;;13.73;5.38;;;1.40;99.90;;;;;;4819619;29;20050;-60
2023/03/09 03:00:27;;;;;;;9.98;4.05;;;1.40;99.90;;;;;;4821018;29;20543;-62
2023/03/09 03:02:55;;;;;;;8.25;4.78;;;1.40;99.90;;;;;;4821075;29;20049;-59
2023/03/09 03:05:26;;;;;;;12.18;5.13;;;1.40;99.90;;;;;;4820954;29;20054;-60
2023/03/09 03:07:54;;;;;;;12.05;5.20;;;1.40;99.90;;;;;;4823827;29;20042;-59
2023/03/09 03:10:22;;;;;;;9.82;5.45;;;1.40;99.90;;;;;;4820820;29;20058;-59
2023/03/09 03:12:50;;;;;;;12.15;5.40;;;1.40;99.90;;;;;;4822399;29;20054;-59
2023/03/09 03:15:18;;;;;;;10.52;5.18;;;1.40;99.90;;;;;;4830050;29;20063;-60
2023/03/09 03:17:46;;;;;;;10.48;4.78;;;1.40;99.90;;;;;;4825560;29;20054;-60
2023/03/09 03:20:16;;;;;;;9.85;4.60;;;1.40;99.90;;;;;;4823265;29;20065;-60
2023/03/09 03:22:47;;;;;;;11.98;5.30;;;1.40;99.90;;;;;;4824307;29;20126;-60
2023/03/09 03:25:20;;;;;;;15.00;6.28;;;1.40;99.90;;;;;;4820529;29;20080;-60
2023/03/09 03:27:53;;;;;;;11.75;6.45;;;1.50;99.90;;;;;;4814460;29;20051;-59
2023/03/09 03:30:24;;;;;;;12.27;5.88;;;1.40;99.90;;;;;;4824296;29;20054;-59
2023/03/09 03:32:54;;;;;;;14.82;6.38;;;1.50;99.90;;;;;;4824169;29;20501;-59
2023/03/09 03:35:27;;;;;;;15.32;6.53;;;1.40;99.90;;;;;;4820401;29;20046;-60
2023/03/09 03:37:56;;;;;;;12.98;5.13;;;1.40;99.90;;;;;;4841450;29;20054;-59
2023/03/09 03:40:26;;;;;;;13.13;5.57;;;1.40;99.90;;;;;;4831045;29;20046;-60
2023/03/09 03:42:59;;;;;;;9.20;5.03;;;1.40;99.90;;;;;;4823739;29;20053;-60
2023/03/09 03:45:28;;;;;;;11.23;5.50;;;1.40;99.90;;;;;;4821393;29;20057;-61
2023/03/09 03:47:55;;;;;;;9.15;5.75;;;1.40;99.90;;;;;;4805980;29;20051;-60
2023/03/09 03:50:34;;;;;;;9.02;4.60;;;1.40;99.90;;;;;;4808081;29;20059;-59
2023/03/09 03:53:04;;;;;;;10.98;4.90;;;1.40;99.90;;;;;;4824717;29;20050;-60
2023/03/09 03:55:32;;;;;;;10.65;5.13;;;1.50;99.90;;;;;;4823819;29;20408;-59
2023/03/09 03:58:02;;;;;;;7.72;4.60;;;1.40;99.90;;;;;;4822632;29;20066;-59
2023/03/09 04:00:31;;;;;;;9.20;4.53;;;1.40;99.90;;;;;;4823628;29;20066;-59
2023/03/09 04:03:02;;;;;;;14.27;4.90;;;1.40;99.90;;;;;;4819712;29;20050;-59
2023/03/09 04:05:38;;;;;;;8.75;4.57;;;1.40;99.90;;;;;;4823512;29;20053;-59
2023/03/09 04:08:06;;;;;;;9.20;4.32;;;1.40;99.90;;;;;;4841969;29;20052;-60
2023/03/09 04:10:38;;;;;;;11.25;4.25;;;1.40;99.90;;;;;;4822273;29;20059;-59
2023/03/09 04:13:06;;;;;;;9.25;4.15;;;1.40;99.90;;;;;;4824658;29;20050;-60
2023/03/09 04:15:34;;;;;;;7.63;3.35;;;1.40;99.90;;;;;;4822457;29;20495;-60
2023/03/09 04:18:03;;;;;;;9.15;3.67;;;1.40;99.90;;;;;;4823526;29;20046;-59
2023/03/09 04:20:35;;;;;;;6.43;3.22;;;1.40;99.90;;;;;;4823647;29;20061;-60
2023/03/09 04:23:03;;;;;;;9.45;3.83;;;1.40;99.90;;;;;;4822993;29;20046;-60
2023/03/09 04:25:31;;;;;;;8.70;3.55;;;1.40;99.90;;;;;;4822497;29;20046;-60
2023/03/09 04:28:01;;;;;;;;;;;1.40;99.90;;;;;;4823561;29;20054;-59
2023/03/09 04:30:35;;;;;;;4.63;2.58;;;1.40;99.90;;;;;;4823184;29;20297;-59
2023/03/09 04:33:07;;;;;;;7.85;3.30;;;1.40;99.90;;;;;;4806115;29;20051;-60
2023/03/09 04:35:35;;;;;;;5.95;2.78;;;1.40;99.90;;;;;;4818632;29;20046;-60
2023/03/09 04:38:07;;;;;;;4.28;2.58;;;1.40;99.90;;;;;;4824493;29;20042;-59
2023/03/09 04:40:37;;;;;;;8.57;3.13;;;1.40;99.90;;;;;;4823198;29;20054;-60
2023/03/09 04:43:07;;;;;;;6.57;2.50;;;1.40;99.90;;;;;;4822170;29;20411;-59
2023/03/09 04:45:35;;;;;;;6.60;2.70;;;1.40;99.90;;;;;;4822718;29;20495;-59
2023/03/09 04:48:03;;;;;;;6.18;2.95;;;1.40;99.90;;;;;;4822317;29;20050;-59
2023/03/09 04:50:31;;;;;;;5.18;2.38;;;1.40;99.90;;;;;;4822806;29;20047;-59
2023/03/09 04:53:02;;;;;;;6.00;2.80;;;1.40;99.90;;;;;;4822861;29;20047;-58
2023/03/09 04:55:33;;;;;;;8.10;2.33;;;1.40;99.90;;;;;;4821719;29;20057;-58
2023/03/09 04:58:02;;;;;;;4.90;1.98;;;1.30;99.90;;;;;;4822915;29;20057;-59
2023/03/09 05:00:32;;;;;;;7.13;2.65;;;1.40;99.90;;;;;;4821650;29;20050;-60
2023/03/09 05:03:02;;;;;;;6.28;2.70;;;1.30;99.90;;;;;;4822798;29;20042;-59
2023/03/09 05:05:31;;;;;;;5.55;2.65;;;1.30;99.90;;;;;;4822221;29;20058;-59
2023/03/09 05:08:00;;;;;;;12.05;2.65;;;1.30;99.90;;;;;;4822077;29;20515;-59
2023/03/09 05:10:29;;;;;;;6.75;2.40;;;1.40;99.90;;;;;;4822776;29;20046;-59
2023/03/09 05:12:58;;;;;;;6.50;2.40;;;1.40;99.90;;;;;;4821535;29;20059;-59
2023/03/09 05:15:28;;;;;;;5.20;2.30;;;;;;;;;;4822044;29;20042;-59
2023/03/09 05:17:57;;;;;;;4.80;2.75;;;1.40;99.90;;;;;;4821444;29;20053;-61
2023/03/09 05:20:27;;;;;;;11.82;3.00;;;1.30;99.90;;;;;;4822601;29;20650;-60
2023/03/09 05:23:01;;;;;;;8.10;2.90;;;1.30;99.90;;;;;;4822560;29;20518;-59
2023/03/09 05:25:30;;;;;;;8.75;3.22;;;1.30;99.90;;;;;;4821570;29;20062;-60
2023/03/09 05:27:59;;;;;;;;;;;1.30;99.90;;;;;;4822819;29;20046;-61
2023/03/09 05:30:31;;;;;;;7.00;2.75;;;1.30;99.90;;;;;;4821153;29;20344;-60
2023/03/09 05:33:01;;;;;;;7.38;2.75;;;1.30;99.90;;;;;;4822402;29;20624;-59
2023/03/09 05:35:31;;;;;;;4.47;2.17;;;1.30;99.90;;;;;;4821674;29;20058;-58
2023/03/09 05:38:01;;;;;;;;;;;1.30;99.90;;;;;;4823492;29;20039;-59
2023/03/09 05:40:31;;;;;;;6.40;2.53;;;1.30;99.90;;;;;;4813983;29;19925;-59
2023/03/09 05:43:03;;;;;;;6.57;2.97;;;1.30;99.90;;;;;;4815499;29;20061;-58
2023/03/09 05:45:33;;;;;;;5.15;2.97;;;1.30;99.90;;;;;;4821870;29;20503;-58
2023/03/09 05:48:01;;;;;;;6.30;3.20;;;1.20;99.90;;;;;;4811398;29;20065;-58
2023/03/09 05:50:30;;;;;;;9.95;2.42;;;1.20;99.90;;;;;;4801905;29;20423;-60
2023/03/09 05:52:59;;;;;;;5.80;2.90;;;1.20;99.90;;;;;;4819284;29;20046;-61
2023/03/09 05:55:28;;;;;;;7.55;3.25;;;1.20;99.90;;;;;;4817969;29;20593;-60
2023/03/09 05:57:56;;;;;;;6.30;3.00;;;1.30;99.90;;;;;;4826465;29;20053;-59
2023/03/09 06:00:24;;;;;;;7.93;4.70;;;1.20;99.90;;;;;;4834990;29;20049;-60
2023/03/09 06:02:57;;;;;;;7.78;3.92;;;1.20;99.90;;;;;;4811092;29;20058;-59
2023/03/09 06:05:45;;;;;;;7.50;2.42;;;1.20;99.90;;;;;;4815096;29;20288;-60
2023/03/09 06:08:13;;;;;;;4.70;2.87;;;1.30;99.90;;;;;;4821436;29;20054;-60
2023/03/09 06:10:44;;;;;;;6.68;3.30;;;1.30;99.90;;;;;;4815427;29;20574;-60
2023/03/09 06:13:14;;;;;;;6.72;3.25;;;1.30;99.90;;;;;;4823608;29;20042;-58
2023/03/09 06:15:42;;;;;;;6.50;2.97;;;1.30;99.90;;;;;;4800053;29;20066;-59
2023/03/09 06:18:14;;;;;;;6.82;3.03;;;1.30;99.90;;;;;;4819195;29;20518;-60
2023/03/09 06:20:42;;;;;;;10.13;3.95;;;1.30;99.90;;;;;;4817520;29;20058;-58
2023/03/09 06:23:13;;;;;;;10.15;3.33;;;1.20;99.90;;;;;;4829237;29;20046;-59
2023/03/09 06:25:41;;;;;;;7.55;3.10;;;1.30;99.90;;;;;;4822393;29;20058;-60
2023/03/09 06:28:09;;;;;;;9.50;5.22;;;1.30;99.90;;;;;;4819141;29;20483;-59
2023/03/09 06:30:42;;;;;;;7.80;3.70;;;1.20;99.90;;;;;;4812308;29;20480;-60
2023/03/09 06:33:11;;;;;;;7.72;3.13;;;1.30;99.90;;;;;;4805939;29;20542;-60
2023/03/09 06:35:42;;;;;;;8.48;3.60;;;1.20;99.90;;;;;;4827820;29;20483;-61
2023/03/09 06:38:10;;;;;;;4.55;3.05;;;1.20;99.90;;;;;;4825242;29;20046;-59
2023/03/09 06:40:40;;;;;;;8.10;3.10;;;1.20;99.90;;;;;;4831385;29;20059;-59
2023/03/09 06:43:08;;;;;;;7.70;2.92;;;1.20;99.90;;;;;;4821141;29;20164;-59
2023/03/09 06:45:37;;;;;;;9.77;3.08;;;1.20;99.90;;;;;;4848263;29;20399;-60
2023/03/09 06:48:08;;;;;;;6.18;3.10;;;1.20;99.90;;;;;;4835488;29;20050;-59
2023/03/09 06:50:38;;;;;;;7.07;2.80;;;1.20;99.90;;;;;;4821272;29;20046;-59
2023/03/09 06:53:12;;;;;;;5.85;2.55;;;1.20;99.90;;;;;;4830745;29;20056;-60
2023/03/09 06:55:43;;;;;;;5.80;2.38;;;1.20;99.90;;;;;;4820663;29;20072;-59
2023/03/09 06:58:12;;;;;;;5.93;2.63;;;1.20;99.90;;;;;;4831872;29;20058;-59
2023/03/09 07:00:46;;;;;;;8.30;2.58;;;1.20;99.90;;;;;;4836971;29;20050;-60
2023/03/09 07:03:18;;;;;;;7.18;2.65;;;1.20;99.90;;;;;;4829190;29;20739;-59
2023/03/09 07:05:49;;;;;;;6.88;2.63;;;1.20;99.90;;;;;;4820631;29;20055;-59
2023/03/09 07:08:17;;;;;;;6.93;3.00;;;1.20;99.90;;;;;;4832100;29;20045;-59
2023/03/09 07:10:49;;;;;;;4.38;2.53;;;1.30;99.90;;;;;;4841049;29;20062;-59
2023/03/09 07:13:16;;;;;;;11.32;3.13;;;1.20;99.90;;;;;;4834312;29;20398;-58
2023/03/09 07:15:46;;;;;;;14.07;3.38;;;1.30;99.90;;;;;;4835252;29;20062;-58
2023/03/09 07:18:17;;;;;;;6.97;2.97;;;1.30;99.90;;;;;;4827435;29;20050;-59
2023/03/09 07:20:45;;;;;;;9.77;3.25;;;1.20;99.90;;;;;;4817652;29;20050;-58
2023/03/09 07:23:13;;;;;;;7.43;3.90;;;1.30;99.90;;;;;;4824859;29;20782;-58
2023/03/09 07:25:41;;;;;;;8.35;3.60;;;1.20;99.90;;;;;;4837976;29;20061;-59
2023/03/09 07:28:08;;;;;;;7.25;2.70;;;1.20;99.90;;;;;;4831734;29;20051;-58
2023/03/09 07:30:37;;;;;;;10.65;3.65;;;1.20;99.90;;;;;;4822035;29;20051;-59
2023/03/09 07:33:06;;;;;;;5.43;2.63;;;1.20;99.90;;;;;;4831717;29;20058;-59
2023/03/09 07:35:37;;;;;;;7.15;3.10;;;1.20;99.90;;;;;;4830361;29;20061;-59
2023/03/09 07:38:05;;;;;;;5.60;2.75;;;1.20;99.90;;;;;;4820662;29;20073;-59
2023/03/09 07:40:33;;;;;;;9.20;3.40;;;1.10;99.90;;;;;;4833143;29;20054;-58
2023/03/09 07:43:00;;;;;;;5.03;3.03;;;1.10;99.90;;;;;;4829577;29;20050;-59
2023/03/09 07:45:50;;;;;;;8.23;2.75;;;1.40;99.90;;;;;;4836045;29;20592;-59
2023/03/09 07:48:20;;;;;;;7.93;3.05;;;1.10;99.90;;;;;;4823241;29;20045;-58
2023/03/09 07:50:56;;;;;;;11.73;3.03;;;1.10;99.90;;;;;;4835950;29;20490;-59
2023/03/09 07:53:24;;;;;;;5.38;2.60;;;1.10;99.90;;;;;;4818438;29;20608;-58
2023/03/09 07:55:56;;;;;;;5.60;3.50;;;1.10;99.90;;;;;;4821879;29;20062;-59
2023/03/09 07:58:25;;;;;;;6.95;3.55;;;1.10;99.90;;;;;;4831904;29;20053;-59
2023/03/09 08:00:52;;;;;;;8.43;3.70;;;1.10;99.90;;;;;;4820950;29;20423;-59
2023/03/09 08:03:24;;;;;;;13.25;5.85;;;1.00;99.90;;;;;;4830040;29;20053;-59
2023/03/09 08:05:55;;;;;;;15.80;7.13;;;1.00;99.90;;;;;;4817443;29;20419;-58
2023/03/09 08:08:25;;;;;;;11.50;4.47;;;1.00;99.90;;;;;;4823988;29;20410;-58
2023/03/09 08:10:54;;;;;;;6.90;3.70;;;1.10;99.90;;;;;;4833562;29;20384;-58
2023/03/09 08:13:22;;;;;;;4.43;2.75;;;1.00;99.90;;;;;;4833121;29;20054;-57
2023/03/09 08:15:51;;;;;;;10.40;4.38;;;1.00;99.90;;;;;;4837918;29;20053;-56
2023/03/09 08:18:19;;;;;;;11.60;3.28;;;1.10;99.90;;;;;;4829977;29;20046;-57
2023/03/09 08:20:50;;;;;;;7.30;3.55;;;1.10;99.90;;;;;;4837809;29;20058;-57
2023/03/09 08:23:21;;;;;;;8.98;3.35;;;1.10;99.90;;;;;;4826351;29;20046;-56
2023/03/09 08:25:54;;;;;;;6.53;4.22;;;1.10;99.90;;;;;;4839547;29;20057;-58
2023/03/09 08:28:22;;;;;;;12.45;3.83;;;1.10;99.90;;;;;;4839306;29;20046;-58
2023/03/09 08:30:50;;;;;;;15.05;3.20;;;1.20;99.90;;;;;;4821593;29;20062;-57
2023/03/09 08:33:18;;;;;;;6.13;2.75;;;1.10;99.90;;;;;;4832254;29;20046;-58
2023/03/09 08:35:46;;;;;;;7.50;3.50;;;1.20;99.90;;;;;;4804411;29;20055;-56
2023/03/09 08:38:17;;;;;;;6.85;3.22;;;1.20;99.90;;;;;;4818932;29;20050;-56
2023/03/09 08:40:45;;;;;;;11.90;4.07;;;1.10;99.90;;;;;;4835686;29;20054;-57
2023/03/09 08:43:12;;;;;;;6.57;3.72;;;1.20;99.90;;;;;;4808242;29;20065;-58
2023/03/09 08:45:40;;;;;;;10.15;3.30;;;1.20;99.90;;;;;;4819251;29;20047;-58
2023/03/09 08:48:08;;;;;;;5.63;3.42;;;1.20;99.90;;;;;;4824846;29;20457;-57
2023/03/09 08:50:36;;;;;;;7.28;3.63;;;1.20;99.90;;;;;;4824171;29;20403;-60
2023/03/09 08:53:04;;;;;;;4.82;2.78;;;1.10;99.90;;;;;;4818221;29;20049;-59
2023/03/09 08:55:32;;;;;;;4.88;3.28;;;1.20;99.90;;;;;;4835590;29;20073;-61
2023/03/09 08:58:00;;;;;;;9.57;4.38;;;1.20;99.90;;;;;;4825870;29;20531;-59
2023/03/09 09:00:30;;;;;;;11.82;5.13;;;1.20;99.90;;;;;;4799368;29;20065;-60
2023/03/09 09:02:58;;;;;;;8.00;3.83;;;1.20;99.90;;;;;;4816367;29;20042;-60
2023/03/09 09:05:26;;;;;;;7.30;3.50;;;1.20;99.90;;;;;;4816909;29;20384;-59
2023/03/09 09:07:54;;;;;;;6.40;3.63;;;1.20;99.90;;;;;;4821149;29;20056;-58
2023/03/09 09:10:23;;;;;;;;;;;1.20;99.90;;;;;;4822181;29;20491;-57
2023/03/09 09:13:02;;;;;;;7.80;3.50;;;1.20;99.90;;;;;;4825794;29;19936;-59
2023/03/09 09:15:30;;;;;;;7.82;3.88;;;1.20;99.90;;;;;;4825007;29;20050;-60
2023/03/09 09:17:57;;;;;;;7.15;3.42;;;1.20;99.90;;;;;;4822421;29;20054;-59
2023/03/09 09:20:25;;;;;;;9.20;4.20;;;1.10;99.90;;;;;;4828017;29;20038;-57
2023/03/09 09:22:53;;;;;;;8.38;3.65;;;1.10;99.90;;;;;;4818197;29;20077;-59
2023/03/09 09:25:21;;;;;;;5.90;3.83;;;1.10;99.90;;;;;;4828890;29;20057;-57
2023/03/09 09:27:50;;;;;;;5.95;3.63;;;1.00;99.90;;;;;;4814157;29;20065;-57
2023/03/09 09:30:18;;;;;;;8.37;3.93;;;1.10;99.90;;;;;;4834337;29;20060;-56
2023/03/09 09:32:46;;;;;;;6.65;3.75;;;1.00;99.90;;;;;;4826273;29;20313;-56
2023/03/09 09:35:14;;;;;;;5.40;3.40;;;1.00;99.90;;;;;;4833265;29;20054;-59
2023/03/09 09:37:42;;;;;;;7.72;3.70;;;1.00;99.90;;;;;;4827901;29;20253;-57
2023/03/09 09:40:14;;;;;;;4.95;2.80;;;1.00;99.90;;;;;;4812089;29;20059;-57
2023/03/09 09:42:44;;;;;;;5.72;3.33;;;0.90;99.90;;;;;;4812952;29;20486;-58
2023/03/09 09:45:27;;;;;;;6.43;3.35;;;0.90;99.90;;;;;;4815288;29;20491;-57
2023/03/09 09:47:56;;;;;;;8.65;3.38;;;0.90;99.90;;;;;;4820329;29;20164;-58
2023/03/09 09:50:29;;;;;;;;;;;0.90;99.90;;;;;;4816348;29;20061;-61
2023/03/09 09:53:07;;;;;;;8.95;3.58;;;0.90;99.90;;;;;;4821394;29;20293;-61
2023/03/09 09:55:42;;;;;;;5.72;3.58;;;0.90;99.90;;;;;;4820820;29;20058;-60
2023/03/09 09:58:40;;;;;;;12.00;3.70;;;0.90;99.90;;;;;;4824452;29;20057;-61
2023/03/09 10:01:17;;;;;;;;;;;0.90;99.90;;;;;;4816049;29;20046;-58
2023/03/09 10:03:49;;;;;;;9.23;3.28;;;1.00;99.90;;;;;;4825737;29;20205;-60
2023/03/09 10:06:24;;;;;;;7.55;3.65;;;1.00;99.90;;;;;;4827222;29;20066;-56
2023/03/09 10:09:10;;;;;;;10.25;2.85;;;1.00;99.90;;;;;;4829604;29;20052;-59
2023/03/09 10:11:43;;;;;;;6.65;3.20;;;1.00;99.90;;;;;;4826226;29;20050;-57
2023/03/09 10:14:26;;;;;;;5.28;3.20;;;1.00;99.90;;;;;;4830857;29;20057;-57
2023/03/09 10:17:06;;;;;;;6.97;3.53;;;1.00;99.90;;;;;;4826673;29;20065;-60
2023/03/09 10:19:39;;;;;;;6.70;3.30;;;1.00;99.90;;;;;;4815881;29;20506;-56
2023/03/09 10:22:20;;;;;;;12.07;4.22;;;1.00;99.90;;;;;;4811900;29;20050;-60
2023/03/09 10:24:52;;;;;;;10.40;3.72;;;1.00;99.90;;;;;;4830380;29;20053;-59
2023/03/09 10:27:35;;;;;;;9.70;3.92;;;1.10;99.90;;;;;;4829533;29;20061;-59
2023/03/09 10:30:11;;;;;;;9.60;3.63;;;1.10;99.90;;;;;;4814215;29;20483;-59
2023/03/09 10:32:52;;;;;;;;;;;1.20;99.90;;;;;;4820922;29;20065;-60
2023/03/09 10:35:38;;;;;;;18.95;3.63;;;1.50;99.90;;;;;;4830067;29;20476;-57
2023/03/09 10:38:17;;;;;;;8.07;3.63;;;1.20;99.90;;;;;;4813597;29;20050;-56
2023/03/09 10:40:51;;;;;;;8.82;4.00;;;1.20;99.90;;;;;;4815804;29;20073;-57
2023/03/09 10:43:24;;;;;;;12.07;3.90;;;1.20;99.90;;;;;;4824627;29;20058;-56
2023/03/09 10:45:53;;;;;;;8.63;3.75;;;1.20;99.90;;;;;;4832655;29;20057;-56
2023/03/09 10:48:26;;;;;;;8.98;4.45;;;1.00;99.90;;;;;;4825071;29;20065;-56
2023/03/09 10:51:02;;;;;;;9.90;4.55;;;1.10;99.90;;;;;;4818979;29;20061;-57
2023/03/09 10:53:44;;;;;;;8.98;5.32;;;1.10;99.90;;;;;;4819367;29;20502;-57
2023/03/09 10:56:30;;;;;;;10.10;3.70;;;1.10;99.90;;;;;;4821621;29;20054;-57
2023/03/09 10:59:06;;;;;;;11.35;4.60;;;1.10;99.90;;;;;;4818307;29;20508;-57
2023/03/09 11:01:36;;;;;;;6.85;4.15;;;1.10;99.90;;;;;;4819098;29;20046;-57
2023/03/09 11:04:31;;;;;;;10.13;3.92;;;-0.20;99.90;;;;;;4811493;29;20046;-57
2023/03/09 11:07:02;;;;;;;6.80;3.47;;;1.20;99.90;;;;;;4806461;29;20050;-57
2023/03/09 11:09:37;;;;;;;9.70;4.28;;;1.20;99.90;;;;;;4826137;29;20047;-57
2023/03/09 11:12:31;;;;;;;13.73;4.95;;;1.20;99.90;;;;;;4801915;29;20039;-57
2023/03/09 11:15:22;;;;;;;7.75;3.40;;;1.30;99.90;;;;;;4817728;29;20051;-58
2023/03/09 11:17:53;;;;;;;7.00;3.80;;;1.30;99.90;;;;;;4802508;29;20392;-58
2023/03/09 11:20:26;;;;;;;6.68;3.45;;;1.40;99.90;;;;;;4815396;29;20051;-56
2023/03/09 11:23:16;;;;;;;7.57;3.83;;;1.40;99.90;;;;;;4821306;29;20046;-57
2023/03/09 11:25:52;;;;;;;;;;;1.40;99.90;;;;;;4808540;29;20074;-57
2023/03/09 11:28:45;;;;;;;5.78;3.53;;;1.40;99.90;;;;;;4827840;29;19931;-58
2023/03/09 11:31:19;;;;;;;7.05;3.65;;;1.40;99.90;;;;;;4814584;29;20555;-58
2023/03/09 11:33:57;;;;;;;10.60;3.85;;;1.50;99.90;;;;;;4817051;29;20432;-57
2023/03/09 11:36:45;;;;;;;7.93;4.25;;;1.60;99.90;;;;;;4806074;29;20047;-57
2023/03/09 11:39:21;;;;;;;7.43;3.67;;;1.60;99.90;;;;;;4815874;29;20508;-58
2023/03/09 11:41:50;;;;;;;8.05;2.75;;;1.70;99.90;;;;;;4803951;29;20055;-57
2023/03/09 11:44:22;;;;;;;6.63;3.30;;;1.80;99.90;;;;;;4839209;29;20050;-56
2023/03/09 11:46:53;;;;;;;10.85;4.18;;;1.80;99.90;;;;;;4837799;29;20061;-57
2023/03/09 11:49:25;;;;;;;9.35;3.63;;;1.80;99.90;;;;;;4837891;29;20380;-56
2023/03/09 11:51:53;;;;;;;6.20;3.20;;;2.00;99.90;;;;;;4829969;29;20055;-57
2023/03/09 11:54:35;;;;;;;8.30;3.70;;;1.90;99.90;;;;;;4824868;29;20042;-57
2023/03/09 11:57:11;;;;;;;6.05;2.83;;;2.00;99.90;;;;;;4820587;29;20061;-57
2023/03/09 12:00:05;;;;;;;5.80;2.60;;;2.00;99.90;;;;;;4821857;29;20039;-59
2023/03/09 12:03:09;;;;;;;6.45;3.38;;;2.00;99.90;;;;;;4822580;29;20068;-58
2023/03/09 12:05:58;;;;;;;5.10;3.05;;;2.00;99.90;;;;;;4825088;29;20057;-58
2023/03/09 12:08:41;;;;;;;5.95;3.78;;;2.00;99.90;;;;;;4832569;29;20058;-59
2023/03/09 12:11:21;;;;;;;5.35;3.58;;;2.00;99.90;;;;;;4821813;29;20499;-58
2023/03/09 12:14:01;;;;;;;4.43;2.92;;;2.00;99.90;;;;;;4826442;29;20066;-57
2023/03/09 12:16:38;;;;;;;7.68;4.05;;;2.10;99.90;;;;;;4803168;29;20062;-57
2023/03/09 12:19:16;;;;;;;6.15;2.80;;;2.00;99.90;;;;;;4810502;29;20047;-58
2023/03/09 12:21:49;;;;;;;8.68;3.22;;;2.10;99.90;;;;;;4803111;29;20492;-58
2023/03/09 12:24:37;;;;;;;7.30;4.18;;;2.10;99.90;;;;;;4825927;29;20061;-57
2023/03/09 12:27:31;;;;;;;5.85;3.38;;;2.10;99.90;;;;;;4821272;29;20483;-58
2023/03/09 12:30:20;;;;;;;7.07;3.53;;;2.10;99.90;;;;;;4803360;29;20054;-58
2023/03/09 12:32:50;;;;;;;6.65;3.10;;;2.10;99.90;;;;;;4809992;29;20049;-58
2023/03/09 12:35:21;;;;;;;5.15;3.15;;;2.00;99.90;;;;;;4821397;29;20055;-58
2023/03/09 12:37:54;;;;;;;7.55;3.65;;;2.00;99.90;;;;;;4834420;29;20065;-57
2023/03/09 12:40:25;;;;;;;5.88;3.60;;;2.00;99.90;;;;;;4799872;29;20055;-60
2023/03/09 12:42:57;;;;;;;4.53;2.65;;;2.10;99.90;;;;;;4816945;29;20046;-58
2023/03/09 12:45:30;;;;;;;5.80;3.58;;;2.10;99.90;;;;;;4838798;29;20053;-58
2023/03/09 12:48:24;;;;;;;5.20;3.00;;;2.10;99.90;;;;;;4818775;29;20046;-57
2023/03/09 12:51:33;;;;;;;4.47;2.25;;;2.20;99.90;;;;;;4802151;29;20062;-57
2023/03/09 12:54:21;;;;;;;5.68;3.05;;;2.20;99.90;;;;;;4839821;29;20053;-58
2023/03/09 12:56:53;;;;;;;5.35;2.88;;;2.20;99.90;;;;;;4802892;29;20381;-58
2023/03/09 12:59:27;;;;;;;5.30;3.17;;;2.10;99.90;;;;;;4831958;29;20050;-58
2023/03/09 13:02:21;;;;;;;4.63;2.92;;;2.10;99.90;;;;;;4820823;29;20062;-57
2023/03/09 13:05:23;;;;;;;7.25;3.58;;;2.00;99.90;;;;;;4833856;29;20065;-58
2023/03/09 13:08:03;;;;;;;5.25;2.88;;;2.00;99.90;;;;;;4837430;29;20057;-58
2023/03/09 13:10:34;;;;;;;6.45;3.15;;;2.00;99.90;;;;;;4804403;29;20050;-58
2023/03/09 13:13:32;;;;;;;7.22;3.70;;;1.90;99.90;;;;;;4819842;29;20491;-59
2023/03/09 13:16:42;;;;;;;5.20;2.95;;;1.90;99.90;;;;;;4826763;29;20050;-58
2023/03/09 13:19:13;;;;;;;;;;;1.90;99.90;;;;;;4834990;29;20058;-59
2023/03/09 13:21:42;;;;;;;13.25;6.38;;;1.90;99.90;;;;;;4838658;29;20419;-59
2023/03/09 13:24:37;;;;;;;19.42;6.90;;;1.80;99.90;;;;;;4825930;29;20046;-59
2023/03/09 13:27:13;;;;;;;21.85;8.77;;;1.80;99.90;;;;;;4810669;29;20054;-58
2023/03/09 13:29:53;;;;;;;27.90;10.95;;;1.80;99.90;;;;;;4814617;29;20055;-58